sensor_id;sensor_type;location;lat;lon;timestamp;P1;durP1;ratioP1;P2;durP2;ratioP2
56063;SDS011;41940;52.880;13.012;2022-08-01T00:00:10;5.63;;;4.18;;
56063;SDS011;41940;52.880;13.012;2022-08-01T00:02:36;6.32;;;3.80;;
56063;SDS011;41940;52.880;13.012;2022-08-01T00:05:05;6.43;;;3.60;;
56063;SDS011;41940;52.880;13.012;2022-08-01T00:07:32;5.18;;;3.75;;
56063;SDS011;41940;52.880;13.012;2022-08-01T00:10:02;4.90;;;3.95;;
56063;SDS011;41940;52.880;13.012;2022-08-01T00:12:28;5.43;;;3.65;;
56063;SDS011;41940;52.880;13.012;2022-08-01T00:14:53;3.83;;;3.45;;
56063;SDS011;41940;52.880;13.012;2022-08-01T00:17:19;6.10;;;3.28;;
56063;SDS011;41940;52.880;13.012;2022-08-01T00:19:44;2.90;;;2.63;;
56063;SDS011;41940;52.880;13.012;2022-08-01T00:22:10;4.28;;;3.13;;
56063;SDS011;41940;52.880;13.012;2022-08-01T00:24:35;6.07;;;3.03;;
56063;SDS011;41940;52.880;13.012;2022-08-01T00:27:00;4.55;;;3.60;;
56063;SDS011;41940;52.880;13.012;2022-08-01T00:29:26;7.13;;;3.47;;
56063;SDS011;41940;52.880;13.012;2022-08-01T00:31:51;3.00;;;2.80;;
56063;SDS011;41940;52.880;13.012;2022-08-01T00:34:17;3.40;;;3.15;;
56063;SDS011;41940;52.880;13.012;2022-08-01T00:36:42;5.18;;;3.28;;
56063;SDS011;41940;52.880;13.012;2022-08-01T00:39:09;5.60;;;3.15;;
56063;SDS011;41940;52.880;13.012;2022-08-01T00:41:34;4.15;;;3.78;;
56063;SDS011;41940;52.880;13.012;2022-08-01T00:44:03;5.35;;;3.40;;
56063;SDS011;41940;52.880;13.012;2022-08-01T00:46:30;15.25;;;3.80;;
56063;SDS011;41940;52.880;13.012;2022-08-01T00:48:56;4.75;;;3.83;;
56063;SDS011;41940;52.880;13.012;2022-08-01T00:51:23;4.85;;;3.83;;
56063;SDS011;41940;52.880;13.012;2022-08-01T00:53:49;4.40;;;4.00;;
56063;SDS011;41940;52.880;13.012;2022-08-01T00:56:15;5.57;;;3.63;;
56063;SDS011;41940;52.880;13.012;2022-08-01T00:58:42;3.20;;;3.03;;
56063;SDS011;41940;52.880;13.012;2022-08-01T01:01:07;7.30;;;3.97;;
56063;SDS011;41940;52.880;13.012;2022-08-01T01:03:33;4.30;;;3.30;;
56063;SDS011;41940;52.880;13.012;2022-08-01T01:08:35;4.68;;;3.22;;
56063;SDS011;41940;52.880;13.012;2022-08-01T01:14:10;3.10;;;2.90;;
56063;SDS011;41940;52.880;13.012;2022-08-01T01:16:52;3.80;;;3.50;;
56063;SDS011;41940;52.880;13.012;2022-08-01T01:19:20;4.18;;;3.53;;
56063;SDS011;41940;52.880;13.012;2022-08-01T01:30:04;3.65;;;3.33;;
56063;SDS011;41940;52.880;13.012;2022-08-01T01:32:41;3.75;;;3.33;;
56063;SDS011;41940;52.880;13.012;2022-08-01T01:35:13;9.30;;;3.55;;
56063;SDS011;41940;52.880;13.012;2022-08-01T01:37:41;3.58;;;3.38;;
56063;SDS011;41940;52.880;13.012;2022-08-01T01:40:09;4.85;;;3.53;;
56063;SDS011;41940;52.880;13.012;2022-08-01T01:42:37;6.70;;;3.35;;
56063;SDS011;41940;52.880;13.012;2022-08-01T01:45:03;3.83;;;3.55;;
56063;SDS011;41940;52.880;13.012;2022-08-01T01:47:30;3.65;;;3.38;;
56063;SDS011;41940;52.880;13.012;2022-08-01T01:49:57;3.80;;;3.13;;
56063;SDS011;41940;52.880;13.012;2022-08-01T01:52:25;12.93;;;4.65;;
56063;SDS011;41940;52.880;13.012;2022-08-01T01:54:51;4.00;;;3.63;;
56063;SDS011;41940;52.880;13.012;2022-08-01T01:57:19;4.15;;;3.75;;
56063;SDS011;41940;52.880;13.012;2022-08-01T01:59:46;4.03;;;3.10;;
56063;SDS011;41940;52.880;13.012;2022-08-01T02:02:13;4.72;;;3.30;;
56063;SDS011;41940;52.880;13.012;2022-08-01T02:04:42;5.60;;;3.50;;
56063;SDS011;41940;52.880;13.012;2022-08-01T02:07:10;3.47;;;3.28;;
56063;SDS011;41940;52.880;13.012;2022-08-01T02:09:39;5.85;;;3.35;;
56063;SDS011;41940;52.880;13.012;2022-08-01T02:12:07;4.55;;;3.25;;
56063;SDS011;41940;52.880;13.012;2022-08-01T02:14:35;5.93;;;3.20;;
56063;SDS011;41940;52.880;13.012;2022-08-01T02:17:02;3.83;;;3.50;;
56063;SDS011;41940;52.880;13.012;2022-08-01T02:19:32;3.83;;;3.38;;
56063;SDS011;41940;52.880;13.012;2022-08-01T02:22:00;3.45;;;3.25;;
56063;SDS011;41940;52.880;13.012;2022-08-01T02:29:42;5.53;;;3.25;;
56063;SDS011;41940;52.880;13.012;2022-08-01T02:32:20;7.25;;;3.50;;
56063;SDS011;41940;52.880;13.012;2022-08-01T02:34:50;3.60;;;3.30;;
56063;SDS011;41940;52.880;13.012;2022-08-01T02:37:18;4.00;;;3.70;;
56063;SDS011;41940;52.880;13.012;2022-08-01T02:39:50;4.18;;;3.67;;
56063;SDS011;41940;52.880;13.012;2022-08-01T02:42:17;5.07;;;3.88;;
56063;SDS011;41940;52.880;13.012;2022-08-01T02:44:44;3.60;;;3.40;;
56063;SDS011;41940;52.880;13.012;2022-08-01T02:47:12;7.05;;;4.10;;
56063;SDS011;41940;52.880;13.012;2022-08-01T02:49:45;19.00;;;4.30;;
56063;SDS011;41940;52.880;13.012;2022-08-01T02:52:14;4.80;;;4.30;;
56063;SDS011;41940;52.880;13.012;2022-08-01T02:54:42;4.57;;;4.25;;
56063;SDS011;41940;52.880;13.012;2022-08-01T02:57:11;4.95;;;4.45;;
56063;SDS011;41940;52.880;13.012;2022-08-01T02:59:39;4.68;;;3.97;;
56063;SDS011;41940;52.880;13.012;2022-08-01T03:02:07;5.20;;;3.90;;
56063;SDS011;41940;52.880;13.012;2022-08-01T03:04:35;4.20;;;3.90;;
56063;SDS011;41940;52.880;13.012;2022-08-01T03:07:04;6.78;;;4.30;;
56063;SDS011;41940;52.880;13.012;2022-08-01T03:09:35;6.80;;;4.75;;
56063;SDS011;41940;52.880;13.012;2022-08-01T03:12:04;4.93;;;4.53;;
56063;SDS011;41940;52.880;13.012;2022-08-01T03:14:35;6.15;;;4.22;;
56063;SDS011;41940;52.880;13.012;2022-08-01T03:17:03;4.53;;;4.00;;
56063;SDS011;41940;52.880;13.012;2022-08-01T03:19:30;9.65;;;5.25;;
56063;SDS011;41940;52.880;13.012;2022-08-01T03:21:56;4.60;;;4.22;;
56063;SDS011;41940;52.880;13.012;2022-08-01T03:24:28;5.20;;;4.80;;
56063;SDS011;41940;52.880;13.012;2022-08-01T03:26:55;5.72;;;5.22;;
56063;SDS011;41940;52.880;13.012;2022-08-01T03:29:25;6.03;;;5.47;;
56063;SDS011;41940;52.880;13.012;2022-08-01T03:31:52;5.45;;;4.97;;
56063;SDS011;41940;52.880;13.012;2022-08-01T03:34:18;7.85;;;5.30;;
56063;SDS011;41940;52.880;13.012;2022-08-01T03:36:52;4.93;;;4.63;;
56063;SDS011;41940;52.880;13.012;2022-08-01T03:39:31;5.03;;;4.70;;
56063;SDS011;41940;52.880;13.012;2022-08-01T03:42:05;5.57;;;4.33;;
56063;SDS011;41940;52.880;13.012;2022-08-01T03:44:35;5.70;;;4.70;;
56063;SDS011;41940;52.880;13.012;2022-08-01T03:47:05;4.53;;;4.22;;
56063;SDS011;41940;52.880;13.012;2022-08-01T03:49:35;5.55;;;5.05;;
56063;SDS011;41940;52.880;13.012;2022-08-01T03:52:07;5.32;;;4.78;;
56063;SDS011;41940;52.880;13.012;2022-08-01T03:54:41;5.15;;;4.65;;
56063;SDS011;41940;52.880;13.012;2022-08-01T03:57:11;7.45;;;4.68;;
56063;SDS011;41940;52.880;13.012;2022-08-01T03:59:38;8.48;;;5.15;;
56063;SDS011;41940;52.880;13.012;2022-08-01T04:02:05;7.07;;;6.18;;
56063;SDS011;41940;52.880;13.012;2022-08-01T04:04:31;10.15;;;6.28;;
56063;SDS011;41940;52.880;13.012;2022-08-01T04:06:58;6.63;;;6.13;;
56063;SDS011;41940;52.880;13.012;2022-08-01T04:09:29;6.53;;;6.00;;
56063;SDS011;41940;52.880;13.012;2022-08-01T04:11:56;7.50;;;6.35;;
56063;SDS011;41940;52.880;13.012;2022-08-01T04:14:23;9.07;;;5.72;;
56063;SDS011;41940;52.880;13.012;2022-08-01T04:16:49;8.30;;;6.47;;
56063;SDS011;41940;52.880;13.012;2022-08-01T04:19:15;7.13;;;6.53;;
56063;SDS011;41940;52.880;13.012;2022-08-01T04:21:40;10.55;;;6.28;;
56063;SDS011;41940;52.880;13.012;2022-08-01T04:24:08;9.90;;;6.80;;
56063;SDS011;41940;52.880;13.012;2022-08-01T04:29:06;7.68;;;6.97;;
56063;SDS011;41940;52.880;13.012;2022-08-01T04:31:34;7.38;;;6.47;;
56063;SDS011;41940;52.880;13.012;2022-08-01T04:34:02;7.53;;;6.82;;
56063;SDS011;41940;52.880;13.012;2022-08-01T04:36:30;7.05;;;6.47;;
56063;SDS011;41940;52.880;13.012;2022-08-01T04:39:00;10.32;;;6.88;;
56063;SDS011;41940;52.880;13.012;2022-08-01T04:41:27;7.10;;;6.25;;
56063;SDS011;41940;52.880;13.012;2022-08-01T04:43:55;15.20;;;8.50;;
56063;SDS011;41940;52.880;13.012;2022-08-01T04:46:24;9.48;;;8.02;;
56063;SDS011;41940;52.880;13.012;2022-08-01T04:48:49;11.73;;;8.20;;
56063;SDS011;41940;52.880;13.012;2022-08-01T04:51:16;18.67;;;10.07;;
56063;SDS011;41940;52.880;13.012;2022-08-01T04:53:43;23.13;;;8.73;;
56063;SDS011;41940;52.880;13.012;2022-08-01T04:56:10;8.88;;;8.00;;
56063;SDS011;41940;52.880;13.012;2022-08-01T04:58:38;8.20;;;7.60;;
56063;SDS011;41940;52.880;13.012;2022-08-01T05:01:07;10.77;;;8.43;;
56063;SDS011;41940;52.880;13.012;2022-08-01T05:03:33;13.60;;;9.32;;
56063;SDS011;41940;52.880;13.012;2022-08-01T05:05:59;9.48;;;8.20;;
56063;SDS011;41940;52.880;13.012;2022-08-01T05:08:24;17.65;;;11.15;;
56063;SDS011;41940;52.880;13.012;2022-08-01T05:10:50;15.40;;;10.40;;
56063;SDS011;41940;52.880;13.012;2022-08-01T05:13:15;17.23;;;11.23;;
56063;SDS011;41940;52.880;13.012;2022-08-01T05:15:41;9.52;;;8.52;;
56063;SDS011;41940;52.880;13.012;2022-08-01T05:18:06;11.48;;;9.25;;
56063;SDS011;41940;52.880;13.012;2022-08-01T05:20:31;16.52;;;10.60;;
56063;SDS011;41940;52.880;13.012;2022-08-01T05:22:57;11.90;;;10.68;;
56063;SDS011;41940;52.880;13.012;2022-08-01T05:25:22;16.60;;;10.32;;
56063;SDS011;41940;52.880;13.012;2022-08-01T05:27:48;17.90;;;9.82;;
56063;SDS011;41940;52.880;13.012;2022-08-01T05:30:14;13.05;;;9.23;;
56063;SDS011;41940;52.880;13.012;2022-08-01T05:32:40;12.02;;;8.75;;
56063;SDS011;41940;52.880;13.012;2022-08-01T05:35:06;9.30;;;7.40;;
56063;SDS011;41940;52.880;13.012;2022-08-01T05:37:32;6.85;;;6.25;;
56063;SDS011;41940;52.880;13.012;2022-08-01T05:39:58;7.75;;;6.97;;
56063;SDS011;41940;52.880;13.012;2022-08-01T05:42:23;8.18;;;6.32;;
56063;SDS011;41940;52.880;13.012;2022-08-01T05:44:49;7.60;;;5.68;;
56063;SDS011;41940;52.880;13.012;2022-08-01T05:47:15;5.75;;;4.88;;
56063;SDS011;41940;52.880;13.012;2022-08-01T05:49:41;5.50;;;5.00;;
56063;SDS011;41940;52.880;13.012;2022-08-01T05:52:07;5.25;;;4.80;;
56063;SDS011;41940;52.880;13.012;2022-08-01T05:54:32;6.47;;;5.85;;
56063;SDS011;41940;52.880;13.012;2022-08-01T05:56:58;6.65;;;4.80;;
56063;SDS011;41940;52.880;13.012;2022-08-01T05:59:26;7.35;;;5.55;;
56063;SDS011;41940;52.880;13.012;2022-08-01T06:01:55;4.60;;;4.20;;
56063;SDS011;41940;52.880;13.012;2022-08-01T06:04:21;10.90;;;4.78;;
56063;SDS011;41940;52.880;13.012;2022-08-01T06:06:47;7.38;;;4.40;;
56063;SDS011;41940;52.880;13.012;2022-08-01T06:09:13;4.97;;;4.40;;
56063;SDS011;41940;52.880;13.012;2022-08-01T06:11:38;9.38;;;4.35;;
56063;SDS011;41940;52.880;13.012;2022-08-01T06:14:04;7.40;;;4.05;;
56063;SDS011;41940;52.880;13.012;2022-08-01T06:16:29;4.88;;;4.25;;
56063;SDS011;41940;52.880;13.012;2022-08-01T06:18:55;5.20;;;4.55;;
56063;SDS011;41940;52.880;13.012;2022-08-01T06:21:20;4.40;;;4.00;;
56063;SDS011;41940;52.880;13.012;2022-08-01T06:23:46;3.90;;;3.40;;
56063;SDS011;41940;52.880;13.012;2022-08-01T06:26:11;4.53;;;4.13;;
56063;SDS011;41940;52.880;13.012;2022-08-01T06:28:37;5.18;;;3.42;;
56063;SDS011;41940;52.880;13.012;2022-08-01T06:31:03;9.70;;;4.20;;
56063;SDS011;41940;52.880;13.012;2022-08-01T06:33:29;9.45;;;3.55;;
56063;SDS011;41940;52.880;13.012;2022-08-01T06:35:55;3.88;;;3.42;;
56063;SDS011;41940;52.880;13.012;2022-08-01T06:38:20;4.40;;;4.00;;
56063;SDS011;41940;52.880;13.012;2022-08-01T06:40:46;4.93;;;3.33;;
56063;SDS011;41940;52.880;13.012;2022-08-01T06:43:11;5.00;;;2.85;;
56063;SDS011;41940;52.880;13.012;2022-08-01T06:45:37;3.45;;;3.05;;
56063;SDS011;41940;52.880;13.012;2022-08-01T06:48:03;10.02;;;3.45;;
56063;SDS011;41940;52.880;13.012;2022-08-01T06:50:30;4.32;;;2.60;;
56063;SDS011;41940;52.880;13.012;2022-08-01T06:52:56;7.15;;;2.58;;
56063;SDS011;41940;52.880;13.012;2022-08-01T06:55:21;2.50;;;2.30;;
56063;SDS011;41940;52.880;13.012;2022-08-01T06:57:47;2.97;;;2.78;;
56063;SDS011;41940;52.880;13.012;2022-08-01T07:00:15;2.40;;;2.30;;
56063;SDS011;41940;52.880;13.012;2022-08-01T07:02:43;2.42;;;2.22;;
56063;SDS011;41940;52.880;13.012;2022-08-01T07:05:10;9.18;;;3.33;;
56063;SDS011;41940;52.880;13.012;2022-08-01T07:07:36;41.70;;;3.72;;
56063;SDS011;41940;52.880;13.012;2022-08-01T07:10:02;6.47;;;2.53;;
56063;SDS011;41940;52.880;13.012;2022-08-01T07:12:28;3.50;;;2.10;;
56063;SDS011;41940;52.880;13.012;2022-08-01T07:14:54;2.67;;;1.98;;
56063;SDS011;41940;52.880;13.012;2022-08-01T07:17:19;4.85;;;2.10;;
56063;SDS011;41940;52.880;13.012;2022-08-01T07:19:46;2.20;;;2.03;;
56063;SDS011;41940;52.880;13.012;2022-08-01T07:22:12;2.10;;;2.00;;
56063;SDS011;41940;52.880;13.012;2022-08-01T07:24:39;2.40;;;1.70;;
56063;SDS011;41940;52.880;13.012;2022-08-01T07:27:04;2.88;;;2.17;;
56063;SDS011;41940;52.880;13.012;2022-08-01T07:29:30;2.03;;;1.92;;
56063;SDS011;41940;52.880;13.012;2022-08-01T07:31:55;2.20;;;2.05;;
56063;SDS011;41940;52.880;13.012;2022-08-01T07:34:22;2.08;;;1.80;;
56063;SDS011;41940;52.880;13.012;2022-08-01T07:36:48;3.17;;;1.88;;
56063;SDS011;41940;52.880;13.012;2022-08-01T07:39:13;2.67;;;2.42;;
56063;SDS011;41940;52.880;13.012;2022-08-01T07:41:39;1.63;;;1.58;;
56063;SDS011;41940;52.880;13.012;2022-08-01T07:44:04;2.95;;;2.40;;
56063;SDS011;41940;52.880;13.012;2022-08-01T07:46:32;3.88;;;2.00;;
56063;SDS011;41940;52.880;13.012;2022-08-01T07:48:58;2.22;;;2.03;;
56063;SDS011;41940;52.880;13.012;2022-08-01T07:51:23;6.13;;;2.72;;
56063;SDS011;41940;52.880;13.012;2022-08-01T07:53:49;4.57;;;2.55;;
56063;SDS011;41940;52.880;13.012;2022-08-01T07:56:14;3.05;;;2.40;;
56063;SDS011;41940;52.880;13.012;2022-08-01T07:58:40;2.22;;;2.13;;
56063;SDS011;41940;52.880;13.012;2022-08-01T08:01:05;6.18;;;2.88;;
56063;SDS011;41940;52.880;13.012;2022-08-01T08:03:31;4.03;;;2.60;;
56063;SDS011;41940;52.880;13.012;2022-08-01T08:05:57;2.83;;;2.63;;
56063;SDS011;41940;52.880;13.012;2022-08-01T08:08:23;2.65;;;2.38;;
56063;SDS011;41940;52.880;13.012;2022-08-01T08:10:49;5.15;;;2.95;;
56063;SDS011;41940;52.880;13.012;2022-08-01T08:13:14;2.40;;;2.20;;
56063;SDS011;41940;52.880;13.012;2022-08-01T08:15:40;2.42;;;2.30;;
56063;SDS011;41940;52.880;13.012;2022-08-01T08:18:05;2.47;;;1.95;;
56063;SDS011;41940;52.880;13.012;2022-08-01T08:20:31;1.83;;;1.70;;
56063;SDS011;41940;52.880;13.012;2022-08-01T08:22:56;2.28;;;1.40;;
56063;SDS011;41940;52.880;13.012;2022-08-01T08:25:25;2.20;;;1.17;;
56063;SDS011;41940;52.880;13.012;2022-08-01T08:27:51;6.57;;;1.35;;
56063;SDS011;41940;52.880;13.012;2022-08-01T08:30:17;7.20;;;1.02;;
56063;SDS011;41940;52.880;13.012;2022-08-01T08:32:43;0.90;;;0.90;;
56063;SDS011;41940;52.880;13.012;2022-08-01T08:35:09;1.52;;;1.42;;
56063;SDS011;41940;52.880;13.012;2022-08-01T08:37:35;4.00;;;1.10;;
56063;SDS011;41940;52.880;13.012;2022-08-01T08:40:01;3.03;;;1.20;;
56063;SDS011;41940;52.880;13.012;2022-08-01T08:42:28;1.55;;;1.02;;
56063;SDS011;41940;52.880;13.012;2022-08-01T08:44:53;1.27;;;0.90;;
56063;SDS011;41940;52.880;13.012;2022-08-01T08:47:20;1.35;;;1.23;;
56063;SDS011;41940;52.880;13.012;2022-08-01T08:49:48;4.93;;;1.35;;
56063;SDS011;41940;52.880;13.012;2022-08-01T08:52:17;6.13;;;1.00;;
56063;SDS011;41940;52.880;13.012;2022-08-01T08:54:45;1.42;;;1.33;;
56063;SDS011;41940;52.880;13.012;2022-08-01T08:57:12;1.40;;;1.05;;
56063;SDS011;41940;52.880;13.012;2022-08-01T08:59:39;0.95;;;0.88;;
56063;SDS011;41940;52.880;13.012;2022-08-01T09:02:05;1.15;;;1.08;;
56063;SDS011;41940;52.880;13.012;2022-08-01T09:04:32;1.15;;;0.65;;
56063;SDS011;41940;52.880;13.012;2022-08-01T09:06:58;23.33;;;1.50;;
56063;SDS011;41940;52.880;13.012;2022-08-01T09:09:23;20.30;;;2.15;;
56063;SDS011;41940;52.880;13.012;2022-08-01T09:11:49;10.82;;;1.88;;
56063;SDS011;41940;52.880;13.012;2022-08-01T09:14:15;9.30;;;1.52;;
56063;SDS011;41940;52.880;13.012;2022-08-01T09:17:01;1.20;;;1.10;;
56063;SDS011;41940;52.880;13.012;2022-08-01T09:19:38;8.25;;;1.42;;
56063;SDS011;41940;52.880;13.012;2022-08-01T09:22:12;4.22;;;1.30;;
56063;SDS011;41940;52.880;13.012;2022-08-01T09:24:43;3.05;;;1.40;;
56063;SDS011;41940;52.880;13.012;2022-08-01T09:27:27;6.28;;;1.17;;
56063;SDS011;41940;52.880;13.012;2022-08-01T09:29:53;1.38;;;1.27;;
56063;SDS011;41940;52.880;13.012;2022-08-01T09:32:20;4.40;;;1.00;;
56063;SDS011;41940;52.880;13.012;2022-08-01T09:34:45;1.27;;;1.17;;
56063;SDS011;41940;52.880;13.012;2022-08-01T09:37:12;1.48;;;1.17;;
56063;SDS011;41940;52.880;13.012;2022-08-01T09:39:42;1.48;;;1.00;;
56063;SDS011;41940;52.880;13.012;2022-08-01T09:42:20;4.63;;;1.58;;
56063;SDS011;41940;52.880;13.012;2022-08-01T09:44:47;1.67;;;1.10;;
56063;SDS011;41940;52.880;13.012;2022-08-01T09:47:13;8.23;;;1.30;;
56063;SDS011;41940;52.880;13.012;2022-08-01T09:49:40;4.97;;;1.45;;
56063;SDS011;41940;52.880;13.012;2022-08-01T09:52:12;0.95;;;0.95;;
56063;SDS011;41940;52.880;13.012;2022-08-01T09:54:37;3.00;;;1.30;;
56063;SDS011;41940;52.880;13.012;2022-08-01T09:57:13;1.73;;;1.15;;
56063;SDS011;41940;52.880;13.012;2022-08-01T09:59:48;1.60;;;1.02;;
56063;SDS011;41940;52.880;13.012;2022-08-01T10:02:31;5.78;;;1.65;;
56063;SDS011;41940;52.880;13.012;2022-08-01T10:05:05;5.60;;;1.13;;
56063;SDS011;41940;52.880;13.012;2022-08-01T10:07:32;4.78;;;1.33;;
56063;SDS011;41940;52.880;13.012;2022-08-01T10:10:11;1.00;;;0.82;;
56063;SDS011;41940;52.880;13.012;2022-08-01T10:12:38;1.17;;;0.82;;
56063;SDS011;41940;52.880;13.012;2022-08-01T10:15:06;1.45;;;0.80;;
56063;SDS011;41940;52.880;13.012;2022-08-01T10:17:33;1.25;;;0.70;;
56063;SDS011;41940;52.880;13.012;2022-08-01T10:19:59;1.52;;;0.57;;
56063;SDS011;41940;52.880;13.012;2022-08-01T10:22:27;1.67;;;0.70;;
56063;SDS011;41940;52.880;13.012;2022-08-01T10:24:54;2.25;;;0.50;;
56063;SDS011;41940;52.880;13.012;2022-08-01T10:27:21;1.95;;;1.00;;
56063;SDS011;41940;52.880;13.012;2022-08-01T10:29:50;1.17;;;0.82;;
56063;SDS011;41940;52.880;13.012;2022-08-01T10:32:21;0.50;;;0.50;;
56063;SDS011;41940;52.880;13.012;2022-08-01T10:34:49;7.45;;;0.90;;
56063;SDS011;41940;52.880;13.012;2022-08-01T10:37:14;2.97;;;0.60;;
56063;SDS011;41940;52.880;13.012;2022-08-01T10:39:42;0.98;;;0.57;;
56063;SDS011;41940;52.880;13.012;2022-08-01T10:42:09;0.60;;;0.60;;
56063;SDS011;41940;52.880;13.012;2022-08-01T10:44:37;0.77;;;0.77;;
56063;SDS011;41940;52.880;13.012;2022-08-01T10:47:08;2.00;;;0.50;;
56063;SDS011;41940;52.880;13.012;2022-08-01T10:49:39;1.10;;;1.00;;
56063;SDS011;41940;52.880;13.012;2022-08-01T10:52:18;1.20;;;1.10;;
56063;SDS011;41940;52.880;13.012;2022-08-01T10:54:43;1.08;;;0.85;;
56063;SDS011;41940;52.880;13.012;2022-08-01T10:57:09;6.20;;;0.82;;
56063;SDS011;41940;52.880;13.012;2022-08-01T10:59:35;8.50;;;0.70;;
56063;SDS011;41940;52.880;13.012;2022-08-01T11:02:12;11.35;;;0.73;;
56063;SDS011;41940;52.880;13.012;2022-08-01T11:04:56;1.55;;;0.60;;
56063;SDS011;41940;52.880;13.012;2022-08-01T11:10:19;2.20;;;0.75;;
56063;SDS011;41940;52.880;13.012;2022-08-01T11:13:01;2.55;;;0.73;;
56063;SDS011;41940;52.880;13.012;2022-08-01T11:15:30;1.67;;;0.93;;
56063;SDS011;41940;52.880;13.012;2022-08-01T11:17:56;8.48;;;1.00;;
56063;SDS011;41940;52.880;13.012;2022-08-01T11:20:27;3.25;;;1.00;;
56063;SDS011;41940;52.880;13.012;2022-08-01T11:25:23;2.50;;;0.95;;
56063;SDS011;41940;52.880;13.012;2022-08-01T11:28:16;1.70;;;0.98;;
56063;SDS011;41940;52.880;13.012;2022-08-01T11:33:09;8.00;;;1.55;;
56063;SDS011;41940;52.880;13.012;2022-08-01T11:35:36;6.32;;;1.00;;
56063;SDS011;41940;52.880;13.012;2022-08-01T11:40:48;1.95;;;1.10;;
56063;SDS011;41940;52.880;13.012;2022-08-01T11:46:44;2.80;;;1.00;;
56063;SDS011;41940;52.880;13.012;2022-08-01T11:49:33;1.60;;;1.30;;
56063;SDS011;41940;52.880;13.012;2022-08-01T11:54:31;1.25;;;1.17;;
56063;SDS011;41940;52.880;13.012;2022-08-01T11:57:03;2.22;;;1.23;;
56063;SDS011;41940;52.880;13.012;2022-08-01T11:59:37;0.98;;;0.95;;
56063;SDS011;41940;52.880;13.012;2022-08-01T12:02:14;4.57;;;1.58;;
56063;SDS011;41940;52.880;13.012;2022-08-01T12:07:20;1.17;;;1.10;;
56063;SDS011;41940;52.880;13.012;2022-08-01T12:09:47;5.68;;;1.20;;
56063;SDS011;41940;52.880;13.012;2022-08-01T12:12:16;13.30;;;1.05;;
56063;SDS011;41940;52.880;13.012;2022-08-01T12:14:43;7.10;;;1.25;;
56063;SDS011;41940;52.880;13.012;2022-08-01T12:17:10;3.28;;;1.30;;
56063;SDS011;41940;52.880;13.012;2022-08-01T12:19:36;4.43;;;0.98;;
56063;SDS011;41940;52.880;13.012;2022-08-01T12:22:35;1.35;;;0.85;;
56063;SDS011;41940;52.880;13.012;2022-08-01T12:24:53;2.05;;;1.15;;
56063;SDS011;41940;52.880;13.012;2022-08-01T12:27:28;1.80;;;1.10;;
56063;SDS011;41940;52.880;13.012;2022-08-01T12:29:55;1.80;;;0.93;;
56063;SDS011;41940;52.880;13.012;2022-08-01T12:32:29;0.70;;;0.63;;
56063;SDS011;41940;52.880;13.012;2022-08-01T12:35:06;2.83;;;1.00;;
56063;SDS011;41940;52.880;13.012;2022-08-01T12:37:42;1.42;;;0.70;;
56063;SDS011;41940;52.880;13.012;2022-08-01T12:40:16;5.70;;;0.77;;
56063;SDS011;41940;52.880;13.012;2022-08-01T12:42:45;2.15;;;0.63;;
56063;SDS011;41940;52.880;13.012;2022-08-01T12:45:25;8.60;;;1.00;;
56063;SDS011;41940;52.880;13.012;2022-08-01T12:47:52;1.83;;;0.75;;
56063;SDS011;41940;52.880;13.012;2022-08-01T12:50:20;4.88;;;0.70;;
56063;SDS011;41940;52.880;13.012;2022-08-01T12:52:48;3.47;;;0.55;;
56063;SDS011;41940;52.880;13.012;2022-08-01T12:57:43;0.47;;;0.47;;
56063;SDS011;41940;52.880;13.012;2022-08-01T13:00:12;2.55;;;1.10;;
56063;SDS011;41940;52.880;13.012;2022-08-01T13:02:40;0.98;;;0.70;;
56063;SDS011;41940;52.880;13.012;2022-08-01T13:05:06;6.22;;;1.23;;
56063;SDS011;41940;52.880;13.012;2022-08-01T13:07:47;4.75;;;0.80;;
56063;SDS011;41940;52.880;13.012;2022-08-01T13:10:23;1.65;;;0.77;;
56063;SDS011;41940;52.880;13.012;2022-08-01T13:12:51;4.68;;;0.88;;
56063;SDS011;41940;52.880;13.012;2022-08-01T13:15:22;8.35;;;0.63;;
56063;SDS011;41940;52.880;13.012;2022-08-01T13:17:50;5.53;;;0.75;;
56063;SDS011;41940;52.880;13.012;2022-08-01T13:20:23;0.52;;;0.50;;
56063;SDS011;41940;52.880;13.012;2022-08-01T13:23:14;2.85;;;1.02;;
56063;SDS011;41940;52.880;13.012;2022-08-01T13:28:14;6.28;;;0.60;;
56063;SDS011;41940;52.880;13.012;2022-08-01T13:30:50;1.40;;;0.50;;
56063;SDS011;41940;52.880;13.012;2022-08-01T13:33:18;4.75;;;0.80;;
56063;SDS011;41940;52.880;13.012;2022-08-01T13:35:44;6.20;;;0.57;;
56063;SDS011;41940;52.880;13.012;2022-08-01T13:38:11;1.13;;;0.52;;
56063;SDS011;41940;52.880;13.012;2022-08-01T13:40:36;7.47;;;0.50;;
56063;SDS011;41940;52.880;13.012;2022-08-01T13:43:02;3.58;;;0.60;;
56063;SDS011;41940;52.880;13.012;2022-08-01T13:45:27;5.40;;;0.88;;
56063;SDS011;41940;52.880;13.012;2022-08-01T13:47:53;1.30;;;0.50;;
56063;SDS011;41940;52.880;13.012;2022-08-01T13:50:18;0.75;;;0.47;;
56063;SDS011;41940;52.880;13.012;2022-08-01T13:52:44;13.68;;;0.55;;
56063;SDS011;41940;52.880;13.012;2022-08-01T13:55:10;24.40;;;1.77;;
56063;SDS011;41940;52.880;13.012;2022-08-01T13:57:35;0.77;;;0.50;;
56063;SDS011;41940;52.880;13.012;2022-08-01T14:00:01;2.92;;;0.90;;
56063;SDS011;41940;52.880;13.012;2022-08-01T14:02:27;2.63;;;0.22;;
56063;SDS011;41940;52.880;13.012;2022-08-01T14:04:53;1.23;;;0.32;;
56063;SDS011;41940;52.880;13.012;2022-08-01T14:07:20;1.75;;;0.30;;
56063;SDS011;41940;52.880;13.012;2022-08-01T14:09:46;4.70;;;0.30;;
56063;SDS011;41940;52.880;13.012;2022-08-01T14:12:11;1.50;;;0.40;;
56063;SDS011;41940;52.880;13.012;2022-08-01T14:14:37;3.03;;;0.40;;
56063;SDS011;41940;52.880;13.012;2022-08-01T14:17:03;1.10;;;0.40;;
56063;SDS011;41940;52.880;13.012;2022-08-01T14:19:29;0.22;;;0.22;;
56063;SDS011;41940;52.880;13.012;2022-08-01T14:21:54;3.42;;;0.40;;
56063;SDS011;41940;52.880;13.012;2022-08-01T14:24:22;2.10;;;0.30;;
56063;SDS011;41940;52.880;13.012;2022-08-01T14:26:48;1.85;;;0.60;;
56063;SDS011;41940;52.880;13.012;2022-08-01T14:29:14;2.30;;;0.50;;
56063;SDS011;41940;52.880;13.012;2022-08-01T14:31:40;0.40;;;0.40;;
56063;SDS011;41940;52.880;13.012;2022-08-01T14:34:05;0.68;;;0.30;;
56063;SDS011;41940;52.880;13.012;2022-08-01T14:36:31;2.58;;;0.60;;
56063;SDS011;41940;52.880;13.012;2022-08-01T14:38:56;4.38;;;0.45;;
56063;SDS011;41940;52.880;13.012;2022-08-01T14:41:22;11.88;;;1.10;;
56063;SDS011;41940;52.880;13.012;2022-08-01T14:43:47;13.38;;;0.82;;
56063;SDS011;41940;52.880;13.012;2022-08-01T14:46:13;1.25;;;0.70;;
56063;SDS011;41940;52.880;13.012;2022-08-01T14:48:38;0.68;;;0.40;;
56063;SDS011;41940;52.880;13.012;2022-08-01T14:51:04;2.70;;;0.50;;
56063;SDS011;41940;52.880;13.012;2022-08-01T14:53:32;7.18;;;0.50;;
56063;SDS011;41940;52.880;13.012;2022-08-01T14:55:58;6.65;;;1.48;;
56063;SDS011;41940;52.880;13.012;2022-08-01T14:58:24;3.08;;;0.65;;
56063;SDS011;41940;52.880;13.012;2022-08-01T15:00:49;2.63;;;0.60;;
56063;SDS011;41940;52.880;13.012;2022-08-01T15:03:19;2.97;;;0.77;;
56063;SDS011;41940;52.880;13.012;2022-08-01T15:05:45;3.30;;;0.50;;
56063;SDS011;41940;52.880;13.012;2022-08-01T15:08:11;1.25;;;0.30;;
56063;SDS011;41940;52.880;13.012;2022-08-01T15:10:36;0.50;;;0.50;;
56063;SDS011;41940;52.880;13.012;2022-08-01T15:13:01;0.75;;;0.50;;
56063;SDS011;41940;52.880;13.012;2022-08-01T15:15:27;1.52;;;0.60;;
56063;SDS011;41940;52.880;13.012;2022-08-01T15:17:52;4.30;;;0.93;;
56063;SDS011;41940;52.880;13.012;2022-08-01T15:20:18;7.68;;;0.40;;
56063;SDS011;41940;52.880;13.012;2022-08-01T15:22:44;0.30;;;0.30;;